sensor_id;sensor_type;location;lat;lon;timestamp;pressure;altitude;pressure_sealevel;temperature
71163;BMP280;58858;50.948;6.566;2022-10-04T00:05:06;101469.81;;;8.12
71163;BMP280;58858;50.948;6.566;2022-10-04T00:15:35;101480.47;;;8.16
71163;BMP280;58858;50.948;6.566;2022-10-04T00:25:37;101462.50;;;8.02
71163;BMP280;58858;50.948;6.566;2022-10-04T00:45:55;101440.25;;;7.93
71163;BMP280;58858;50.948;6.566;2022-10-04T00:56:01;101457.56;;;8.01
71163;BMP280;58858;50.948;6.566;2022-10-04T01:06:05;101446.41;;;7.99
71163;BMP280;58858;50.948;6.566;2022-10-04T01:16:14;101462.13;;;8.11
71163;BMP280;58858;50.948;6.566;2022-10-04T01:36:30;101442.53;;;8.12
71163;BMP280;58858;50.948;6.566;2022-10-04T01:46:34;101424.50;;;8.04
71163;BMP280;58858;50.948;6.566;2022-10-04T01:56:46;101413.13;;;8.00
71163;BMP280;58858;50.948;6.566;2022-10-04T02:06:52;101411.13;;;7.83
71163;BMP280;58858;50.948;6.566;2022-10-04T02:16:54;101408.84;;;7.63
71163;BMP280;58858;50.948;6.566;2022-10-04T02:26:55;101399.19;;;7.62
71163;BMP280;58858;50.948;6.566;2022-10-04T02:36:56;101379.41;;;7.56
71163;BMP280;58858;50.948;6.566;2022-10-04T02:57:20;101363.16;;;7.46
71163;BMP280;58858;50.948;6.566;2022-10-04T03:07:22;101354.63;;;7.31
71163;BMP280;58858;50.948;6.566;2022-10-04T03:17:23;101347.94;;;7.27
71163;BMP280;58858;50.948;6.566;2022-10-04T03:27:28;101325.22;;;7.19
71163;BMP280;58858;50.948;6.566;2022-10-04T03:37:34;101337.66;;;7.14
71163;BMP280;58858;50.948;6.566;2022-10-04T03:47:41;101335.31;;;7.00
71163;BMP280;58858;50.948;6.566;2022-10-04T03:57:43;101324.09;;;7.09
71163;BMP280;58858;50.948;6.566;2022-10-04T04:18:06;101329.09;;;6.76
71163;BMP280;58858;50.948;6.566;2022-10-04T04:28:32;101321.91;;;6.74
71163;BMP280;58858;50.948;6.566;2022-10-04T04:38:35;101324.19;;;6.70
71163;BMP280;58858;50.948;6.566;2022-10-04T04:49:02;101311.53;;;6.72
71163;BMP280;58858;50.948;6.566;2022-10-04T04:59:06;101292.28;;;6.65
71163;BMP280;58858;50.948;6.566;2022-10-04T05:19:36;101280.44;;;6.57
71163;BMP280;58858;50.948;6.566;2022-10-04T05:29:51;101279.50;;;6.55
71163;BMP280;58858;50.948;6.566;2022-10-04T05:40:07;101292.50;;;6.67
71163;BMP280;58858;50.948;6.566;2022-10-04T05:50:28;101274.28;;;6.57
71163;BMP280;58858;50.948;6.566;2022-10-04T06:32:06;101287.13;;;6.61
71163;BMP280;58858;50.948;6.566;2022-10-04T06:53:12;101275.78;;;7.10
71163;BMP280;58858;50.948;6.566;2022-10-04T07:03:25;101278.50;;;7.74
71163;BMP280;58858;50.948;6.566;2022-10-04T07:13:35;101261.19;;;8.39
71163;BMP280;58858;50.948;6.566;2022-10-04T07:23:48;101243.19;;;8.61
71163;BMP280;58858;50.948;6.566;2022-10-04T07:33:54;101240.66;;;8.81
71163;BMP280;58858;50.948;6.566;2022-10-04T07:54:22;101237.28;;;9.00
71163;BMP280;58858;50.948;6.566;2022-10-04T08:04:30;101253.28;;;9.47
71163;BMP280;58858;50.948;6.566;2022-10-04T08:14:55;101231.03;;;10.41
71163;BMP280;58858;50.948;6.566;2022-10-04T08:35:34;101180.63;;;11.60
71163;BMP280;58858;50.948;6.566;2022-10-04T09:06:13;101145.28;;;13.64
71163;BMP280;58858;50.948;6.566;2022-10-04T09:57:40;101176.53;;;15.68
71163;BMP280;58858;50.948;6.566;2022-10-04T10:39:24;101220.13;;;16.64
71163;BMP280;58858;50.948;6.566;2022-10-04T11:42:22;101213.22;;;18.01
71163;BMP280;58858;50.948;6.566;2022-10-04T12:34:15;101129.38;;;18.42
71163;BMP280;58858;50.948;6.566;2022-10-04T12:54:57;101130.91;;;18.84
71163;BMP280;58858;50.948;6.566;2022-10-04T13:36:16;101034.75;;;18.99
71163;BMP280;58858;50.948;6.566;2022-10-04T13:46:25;101065.75;;;18.96
71163;BMP280;58858;50.948;6.566;2022-10-04T14:38:00;101027.38;;;18.72
71163;BMP280;58858;50.948;6.566;2022-10-04T14:48:21;100993.69;;;18.66
71163;BMP280;58858;50.948;6.566;2022-10-04T14:58:47;101018.19;;;18.70
71163;BMP280;58858;50.948;6.566;2022-10-04T15:19:25;101012.63;;;18.49
71163;BMP280;58858;50.948;6.566;2022-10-04T16:00:33;101112.75;;;17.64
71163;BMP280;58858;50.948;6.566;2022-10-04T16:11:02;101142.81;;;17.49
71163;BMP280;58858;50.948;6.566;2022-10-04T16:21:24;101144.44;;;16.96
71163;BMP280;58858;50.948;6.566;2022-10-04T16:41:56;101103.59;;;16.06
71163;BMP280;58858;50.948;6.566;2022-10-04T16:52:20;101060.88;;;15.55
71163;BMP280;58858;50.948;6.566;2022-10-04T17:02:45;101067.22;;;15.49
71163;BMP280;58858;50.948;6.566;2022-10-04T17:33:30;101098.16;;;14.31
71163;BMP280;58858;50.948;6.566;2022-10-04T17:54:00;101098.53;;;13.49
71163;BMP280;58858;50.948;6.566;2022-10-04T18:04:28;101087.81;;;13.29
71163;BMP280;58858;50.948;6.566;2022-10-04T18:14:57;101096.00;;;13.05
71163;BMP280;58858;50.948;6.566;2022-10-04T18:25:20;101098.28;;;12.63
71163;BMP280;58858;50.948;6.566;2022-10-04T18:35:28;101094.13;;;12.54
71163;BMP280;58858;50.948;6.566;2022-10-04T18:45:31;101089.53;;;12.50
71163;BMP280;58858;50.948;6.566;2022-10-04T18:55:56;101119.59;;;12.26
71163;BMP280;58858;50.948;6.566;2022-10-04T19:06:26;101101.25;;;12.35
71163;BMP280;58858;50.948;6.566;2022-10-04T19:17:44;101082.94;;;12.31
71163;BMP280;58858;50.948;6.566;2022-10-04T19:27:33;101067.59;;;12.06
71163;BMP280;58858;50.948;6.566;2022-10-04T19:47:45;101062.41;;;12.46
71163;BMP280;58858;50.948;6.566;2022-10-04T20:18:56;101085.16;;;12.10
71163;BMP280;58858;50.948;6.566;2022-10-04T20:28:58;101073.44;;;11.95
71163;BMP280;58858;50.948;6.566;2022-10-04T20:39:01;101065.34;;;11.68
71163;BMP280;58858;50.948;6.566;2022-10-04T20:49:03;101062.94;;;11.64
71163;BMP280;58858;50.948;6.566;2022-10-04T20:59:04;101064.06;;;11.61
71163;BMP280;58858;50.948;6.566;2022-10-04T21:09:06;101062.00;;;11.40
71163;BMP280;58858;50.948;6.566;2022-10-04T21:29:36;101070.72;;;11.24
71163;BMP280;58858;50.948;6.566;2022-10-04T21:39:37;101086.97;;;11.15
71163;BMP280;58858;50.948;6.566;2022-10-04T21:49:38;101081.16;;;10.91
71163;BMP280;58858;50.948;6.566;2022-10-04T21:59:39;101075.38;;;10.67
71163;BMP280;58858;50.948;6.566;2022-10-04T22:09:40;101086.81;;;10.58
71163;BMP280;58858;50.948;6.566;2022-10-04T22:19:41;101088.69;;;10.36
71163;BMP280;58858;50.948;6.566;2022-10-04T22:29:43;101071.28;;;10.26
71163;BMP280;58858;50.948;6.566;2022-10-04T22:39:44;101074.78;;;10.07
71163;BMP280;58858;50.948;6.566;2022-10-04T22:49:47;101047.78;;;9.91
71163;BMP280;58858;50.948;6.566;2022-10-04T22:59:51;101060.63;;;9.95
71163;BMP280;58858;50.948;6.566;2022-10-04T23:09:54;101058.63;;;9.96
71163;BMP280;58858;50.948;6.566;2022-10-04T23:20:16;101045.47;;;9.94
71163;BMP280;58858;50.948;6.566;2022-10-04T23:30:19;101044.31;;;9.90
71163;BMP280;58858;50.948;6.566;2022-10-04T23:40:23;101045.06;;;9.91
71163;BMP280;58858;50.948;6.566;2022-10-04T23:50:31;101020.34;;;9.83
